Terminal Aerodrome Forecast
Issued by NWS Central Illinois

Home | Current Version | Previous Version | Text Only | Print | Product List | Glossary On
Versions: 1 2 3 4 5 6 7 8 9 10 11 12 13 14 15 16 17 18 19
352
FTUS43 KILX 041735
TAFPIA
TAF
KPIA 041735Z 0418/0518 35015G23KT P6SM BKN035
     FM050100 34005KT P6SM SKC
     FM051600 01010KT P6SM BKN040=

USA.gov is the U.S. government's official web portal to all federal, state and local government web resources and services.